Strong, Arkansas
Current Conditions -  °F | °C
As of 10:53 PM on Saturday 22 Nov 2014 (Local Time) from KELD Reporting Station
Overcast Overcast  
Wind Chill: 62°   Ceiling: 3800
Heat Index: 62°   Visibility: 10mi
Dew Point: 55°   Wind: 8mph
Humidity: 78%   Direction: 120°ESE
Pressure: 29.87"   Gusts: NA
Location:  33.11°N, 92.33°W
Report Text: KELD 230453Z AUTO 12007KT 10SM BKN038 OVC049 17/13 A2987 RMK AO2 SLP113 T01670128
Loading
Personal Weather Stations






























Interactive Weather Map New forecast layout! Learn more

10-Day Weather Forecast

Advertisements
Track Severe Weather on mobile